createdAt,value
2019-04-23T00:01:54.402Z,38.30
2019-04-23T00:04:19.911Z,38.30
2019-04-23T00:07:04.039Z,38.20
2019-04-23T00:09:20.476Z,38.20
2019-04-23T00:11:46.201Z,38.20
2019-04-23T00:14:21.078Z,38.40
2019-04-23T00:16:44.816Z,38.10
2019-04-23T00:19:16.904Z,38.00
2019-04-23T00:21:56.919Z,38.00
2019-04-23T00:24:56.853Z,38.00
2019-04-23T00:27:19.605Z,38.00
2019-04-23T00:29:40.202Z,38.10
2019-04-23T00:32:10.363Z,38.00
2019-04-23T00:34:41.445Z,38.00
2019-04-23T00:37:15.732Z,38.00
2019-04-23T00:39:37.617Z,38.00
2019-04-23T00:42:10.270Z,38.00
2019-04-23T00:44:40.046Z,38.00
2019-04-23T00:47:05.462Z,38.70
2019-04-23T00:49:32.433Z,38.00
2019-04-23T00:51:58.348Z,38.60
2019-04-23T00:54:26.218Z,38.00
2019-04-23T00:57:05.613Z,38.00
2019-04-23T00:59:31.044Z,38.20
2019-04-23T01:01:56.728Z,38.40
2019-04-23T01:04:28.257Z,38.40
2019-04-23T01:07:02.557Z,38.30
2019-04-23T01:09:35.177Z,38.30
2019-04-23T01:11:51.871Z,38.30
2019-04-23T01:14:23.156Z,38.20
2019-04-23T01:16:53.021Z,38.30
2019-04-23T01:19:37.194Z,38.20
2019-04-23T01:21:55.742Z,38.10
2019-04-23T01:24:35.219Z,38.10
2019-04-23T01:27:41.139Z,38.10
2019-04-23T01:30:03.254Z,38.00
2019-04-23T01:32:27.039Z,38.00
2019-04-23T01:35:11.049Z,38.10
2019-04-23T01:37:25.393Z,38.10
2019-04-23T01:39:58.175Z,38.00
2019-04-23T01:42:28.955Z,38.00
2019-04-23T01:47:28.132Z,38.00
2019-04-23T01:50:01.611Z,38.00
2019-04-23T01:52:25.024Z,38.00
2019-04-23T01:54:59.127Z,38.10
2019-04-23T01:57:22.867Z,38.00
2019-04-23T01:59:58.442Z,38.00
2019-04-23T02:02:22.514Z,38.10
2019-04-23T02:04:46.009Z,38.00
2019-04-23T02:07:24.460Z,38.00
2019-04-23T02:09:52.789Z,38.10
2019-04-23T02:12:18.148Z,38.10
2019-04-23T02:14:44.789Z,38.30
2019-04-23T02:17:28.782Z,38.50
2019-04-23T02:19:49.209Z,38.40
2019-04-23T02:22:30.899Z,38.30
2019-04-23T02:24:59.371Z,38.20
2019-04-23T02:27:29.950Z,38.20
2019-04-23T02:30:05.928Z,38.30
2019-04-23T02:32:35.673Z,38.20
2019-04-23T02:35:08.799Z,38.20
2019-04-23T02:37:45.670Z,38.20
2019-04-23T02:39:57.184Z,38.20
2019-04-23T02:42:46.098Z,38.20
2019-04-23T02:44:53.845Z,38.10
2019-04-23T02:52:21.327Z,38.00
2019-04-23T02:57:12.821Z,38.00
2019-04-23T03:00:05.729Z,38.00
2019-04-23T03:04:54.308Z,38.00
2019-04-23T03:07:26.910Z,37.90
2019-04-23T03:09:47.755Z,38.00
2019-04-23T03:12:24.976Z,38.00
2019-04-23T03:14:48.924Z,38.00
2019-04-23T03:17:10.352Z,38.00
2019-04-23T03:20:01.572Z,38.00
2019-04-23T03:22:14.975Z,38.00
2019-04-23T03:25:10.221Z,38.10
2019-04-23T03:39:56.709Z,38.20
2019-04-23T03:42:23.900Z,38.10
2019-04-23T03:49:48.615Z,38.10
2019-04-23T03:52:20.881Z,38.00
2019-04-23T03:57:18.435Z,38.00
2019-04-23T03:59:51.961Z,38.00
2019-04-23T04:04:39.165Z,38.00
2019-04-23T04:12:14.289Z,38.00
2019-04-23T04:15:01.139Z,38.00
2019-04-23T04:17:09.689Z,38.00
2019-04-23T04:22:13.460Z,37.90
2019-04-23T04:24:45.168Z,38.00
2019-04-23T04:27:06.358Z,38.00
2019-04-23T04:29:47.449Z,38.00
2019-04-23T04:32:00.367Z,38.00
2019-04-23T04:37:37.816Z,38.20
2019-04-23T04:39:33.560Z,38.50
2019-04-23T04:49:34.042Z,38.90
2019-04-23T04:52:13.499Z,38.80
2019-04-23T04:54:23.070Z,38.70
2019-04-23T04:57:05.435Z,38.70
2019-04-23T04:59:25.944Z,39.20
2019-04-23T05:01:58.857Z,38.60
2019-04-23T05:04:30.617Z,38.50
2019-04-23T05:12:14.467Z,38.40
2019-04-23T05:14:23.494Z,38.40
2019-04-23T05:16:53.337Z,38.40
2019-04-23T05:21:54.404Z,38.40
2019-04-23T05:26:38.319Z,38.40
2019-04-23T05:31:42.743Z,38.40
2019-04-23T05:34:12.893Z,38.40
2019-04-23T05:39:17.501Z,38.30
2019-04-23T05:41:41.694Z,38.40
2019-04-23T05:44:18.508Z,38.40
2019-04-23T05:46:36.632Z,38.30
2019-04-23T05:51:45.746Z,38.40
2019-04-23T05:54:08.479Z,38.50
2019-04-23T05:56:34.930Z,38.70
2019-04-23T05:59:06.658Z,38.60
2019-04-23T06:04:14.081Z,38.50
2019-04-23T06:06:55.747Z,38.40
2019-04-23T06:11:36.912Z,38.40
2019-04-23T06:14:05.343Z,38.40
2019-04-23T06:16:36.290Z,38.30
2019-04-23T06:19:01.391Z,38.30
2019-04-23T06:21:33.990Z,38.30
2019-04-23T06:23:59.707Z,38.30
2019-04-23T06:29:02.444Z,38.30
2019-04-23T06:33:54.261Z,38.40
2019-04-23T06:36:25.965Z,38.40
2019-04-23T06:41:23.950Z,38.50
2019-04-23T06:44:00.486Z,38.60
2019-04-23T06:46:21.268Z,38.70
2019-04-23T06:48:47.046Z,38.70
2019-04-23T06:51:27.484Z,39.40
2019-04-23T06:53:43.690Z,38.70
2019-04-23T06:56:23.437Z,38.70
2019-04-23T06:58:42.925Z,39.40
2019-04-23T07:01:09.752Z,38.80
2019-04-23T07:06:28.514Z,38.90
2019-04-23T07:09:08.172Z,39.10
2019-04-23T07:11:23.763Z,39.20
2019-04-23T07:16:09.555Z,39.10
2019-04-23T07:18:41.528Z,39.20
2019-04-23T07:21:16.944Z,39.20
2019-04-23T07:23:44.830Z,39.30
2019-04-23T07:26:23.232Z,39.30
2019-04-23T07:28:43.770Z,39.40
2019-04-23T07:31:14.293Z,39.50
2019-04-23T07:33:44.238Z,39.60
2019-04-23T07:36:15.974Z,39.40
2019-04-23T07:38:47.362Z,39.30
2019-04-23T07:41:18.263Z,39.50
2019-04-23T07:44:10.972Z,39.50
2019-04-23T07:46:38.312Z,39.40
2019-04-23T07:48:56.430Z,39.50
2019-04-23T07:51:29.569Z,40.00
2019-04-23T07:54:01.768Z,39.80
2019-04-23T07:56:25.565Z,39.70
2019-04-23T07:59:01.256Z,39.70
2019-04-23T08:01:29.772Z,39.60
2019-04-23T08:03:57.641Z,39.60
2019-04-23T08:06:24.138Z,39.50
2019-04-23T08:09:10.962Z,39.50
2019-04-23T08:14:04.857Z,39.40
2019-04-23T08:16:32.946Z,39.40
2019-04-23T08:21:21.175Z,39.30
2019-04-23T08:23:55.279Z,39.40
2019-04-23T08:29:04.106Z,39.30
2019-04-23T08:31:32.032Z,39.30
2019-04-23T08:34:12.779Z,39.70
2019-04-23T08:36:31.188Z,39.70
2019-04-23T08:38:57.671Z,39.90
2019-04-23T08:43:57.201Z,39.50
2019-04-23T08:46:33.072Z,39.20
2019-04-23T08:49:05.050Z,39.60
2019-04-23T08:51:38.509Z,39.50
2019-04-23T08:53:57.188Z,39.30
2019-04-23T08:56:32.165Z,39.20
2019-04-23T08:58:47.353Z,40.00
2019-04-23T09:01:24.836Z,39.40
2019-04-23T09:03:49.319Z,39.50
2019-04-23T09:06:21.681Z,39.60
2019-04-23T09:09:04.224Z,39.50
2019-04-23T09:11:35.850Z,39.30
2019-04-23T09:16:16.030Z,39.40
2019-04-23T09:18:47.243Z,39.40
2019-04-23T09:21:16.049Z,39.30
2019-04-23T09:23:46.796Z,39.10
2019-04-23T09:26:07.991Z,39.10
2019-04-23T09:33:58.363Z,39.40
2019-04-23T09:39:12.781Z,38.90
2019-04-23T09:41:39.563Z,39.80
2019-04-23T09:44:43.477Z,39.50
2019-04-23T09:46:58.841Z,40.10
2019-04-23T09:49:20.863Z,39.50
2019-04-23T09:51:53.051Z,39.40
2019-04-23T09:54:34.276Z,39.40
2019-04-23T10:01:38.666Z,39.90
2019-04-23T10:03:57.636Z,39.20
2019-04-23T10:06:22.612Z,39.10
2019-04-23T10:08:51.393Z,39.40
2019-04-23T10:11:13.904Z,39.00
2019-04-23T10:13:42.925Z,39.30
2019-04-23T10:16:15.263Z,39.20
2019-04-23T10:18:41.370Z,38.90
2019-04-23T10:21:09.058Z,39.30
2019-04-23T10:23:37.039Z,39.10
2019-04-23T10:26:06.174Z,39.10
2019-04-23T10:28:35.946Z,39.10
2019-04-23T10:31:04.905Z,39.10
2019-04-23T10:33:32.548Z,39.10
2019-04-23T10:36:06.289Z,39.10
2019-04-23T10:38:30.723Z,39.00
2019-04-23T10:41:00.142Z,39.00
2019-04-23T10:43:30.353Z,39.10
2019-04-23T10:46:14.675Z,38.90
2019-04-23T10:49:12.915Z,39.10
2019-04-23T10:51:41.232Z,39.10
2019-04-23T10:54:25.084Z,39.20
2019-04-23T10:56:40.833Z,39.60
2019-04-23T10:59:12.194Z,39.40
2019-04-23T11:01:42.036Z,39.60
2019-04-23T11:06:42.726Z,39.70
2019-04-23T11:09:15.472Z,39.90
2019-04-23T11:11:34.527Z,39.90
2019-04-23T11:14:13.217Z,39.90
2019-04-23T11:16:49.290Z,39.80
2019-04-23T11:19:17.222Z,39.20
2019-04-23T11:21:42.849Z,38.90
2019-04-23T11:24:12.838Z,39.00
2019-04-23T11:26:34.446Z,39.40
2019-04-23T11:29:15.040Z,39.70
2019-04-23T11:31:35.352Z,39.70
2019-04-23T11:38:58.928Z,39.70
2019-04-23T11:41:34.877Z,39.70
2019-04-23T11:44:04.362Z,39.40
2019-04-23T11:46:45.802Z,39.40
2019-04-23T11:51:46.083Z,39.70
2019-04-23T11:53:54.381Z,39.70
2019-04-23T11:57:04.430Z,39.40
2019-04-23T11:58:52.437Z,40.30
2019-04-23T12:04:24.299Z,40.00
2019-04-23T12:06:54.078Z,40.00
2019-04-23T12:09:40.076Z,39.80
2019-04-23T12:14:39.165Z,40.00
2019-04-23T12:17:08.154Z,40.10
2019-04-23T12:19:45.742Z,40.10
2019-04-23T12:21:56.557Z,40.50
2019-04-23T12:24:42.026Z,40.70
2019-04-23T12:26:55.896Z,40.50
2019-04-23T12:29:27.194Z,40.50
2019-04-23T12:32:30.016Z,41.00
2019-04-23T12:34:46.844Z,41.10
2019-04-23T12:37:09.514Z,40.60
2019-04-23T12:39:42.227Z,40.80
2019-04-23T12:42:19.734Z,40.80
2019-04-23T12:44:39.257Z,40.70
2019-04-23T12:47:17.255Z,40.90
2019-04-23T12:50:03.779Z,40.50
2019-04-23T12:52:12.155Z,40.80
2019-04-23T12:54:51.726Z,41.00
2019-04-23T12:57:14.269Z,40.80
2019-04-23T12:59:36.694Z,41.10
2019-04-23T13:04:43.680Z,40.90
2019-04-23T13:07:09.988Z,40.80
2019-04-23T13:09:48.688Z,40.50
2019-04-23T13:12:20.217Z,40.40
2019-04-23T13:14:41.675Z,40.20
2019-04-23T13:17:11.615Z,40.10
2019-04-23T13:19:54.703Z,40.00
2019-04-23T13:22:07.940Z,40.00
2019-04-23T13:24:46.648Z,40.10
2019-04-23T13:27:30.738Z,40.00
2019-04-23T13:30:14.404Z,40.10
2019-04-23T13:32:20.923Z,40.10
2019-04-23T13:35:02.651Z,40.10
2019-04-23T13:37:31.589Z,40.10
2019-04-23T13:39:44.307Z,40.10
2019-04-23T13:42:23.149Z,40.10
2019-04-23T13:44:52.131Z,40.30
2019-04-23T13:47:31.146Z,40.40
2019-04-23T13:49:55.246Z,40.40
2019-04-23T13:52:46.438Z,40.40
2019-04-23T13:54:59.681Z,40.40
2019-04-23T13:59:44.558Z,40.20
2019-04-23T14:02:23.333Z,40.20
2019-04-23T14:04:50.777Z,40.30
2019-04-23T14:07:24.855Z,40.20
2019-04-23T14:09:55.005Z,40.20
2019-04-23T14:12:17.727Z,40.20
2019-04-23T14:14:58.059Z,40.40
2019-04-23T14:17:46.721Z,40.40
2019-04-23T14:19:53.815Z,40.40
2019-04-23T14:22:48.799Z,40.50
2019-04-23T14:27:28.148Z,40.60
2019-04-23T14:30:01.200Z,40.60
2019-04-23T14:34:54.663Z,40.70
2019-04-23T14:39:48.447Z,40.80
2019-04-23T14:42:24.737Z,40.80
2019-04-23T14:44:49.544Z,40.80
2019-04-23T14:47:25.864Z,40.80
2019-04-23T14:50:18.671Z,41.00
2019-04-23T14:55:33.715Z,41.60
2019-04-23T14:57:32.693Z,41.90
2019-04-23T15:00:01.812Z,41.20
2019-04-23T15:02:28.795Z,41.10
2019-04-23T15:04:54.574Z,41.30
2019-04-23T15:10:04.629Z,41.30
2019-04-23T15:12:30.437Z,41.30
2019-04-23T15:14:59.833Z,41.40
2019-04-23T15:17:20.034Z,41.30
2019-04-23T15:19:57.432Z,41.30
2019-04-23T15:25:06.991Z,41.40
2019-04-23T15:28:03.118Z,41.40
2019-04-23T15:29:45.807Z,41.40
2019-04-23T15:32:29.293Z,41.30
2019-04-23T15:34:57.546Z,41.10
2019-04-23T15:39:58.775Z,41.20
2019-04-23T15:42:34.121Z,41.20
2019-04-23T15:44:48.737Z,41.90
2019-04-23T15:47:24.980Z,41.20
2019-04-23T15:49:57.342Z,41.70
2019-04-23T15:52:37.568Z,41.10
2019-04-23T15:54:49.146Z,41.00
2019-04-23T15:57:45.293Z,41.10
2019-04-23T15:59:55.978Z,41.30
2019-04-23T16:01:45.360Z,41.10
2019-04-23T16:04:15.350Z,41.10
2019-04-23T16:06:43.541Z,40.60
2019-04-23T16:09:39.844Z,41.20
2019-04-23T16:11:59.594Z,41.10
2019-04-23T16:14:42.756Z,41.40
2019-04-23T16:17:18.745Z,41.40
2019-04-23T16:19:43.250Z,41.30
2019-04-23T16:22:12.990Z,41.30
2019-04-23T16:24:43.304Z,41.30
2019-04-23T16:27:07.928Z,41.60
2019-04-23T16:32:16.699Z,41.50
2019-04-23T16:37:09.946Z,41.60
2019-04-23T16:39:34.539Z,41.60
2019-04-23T16:42:08.813Z,41.40
2019-04-23T16:44:45.010Z,41.50
2019-04-23T16:47:18.551Z,41.50
2019-04-23T16:52:01.426Z,41.50
2019-04-23T16:54:40.675Z,41.40
2019-04-23T17:06:58.200Z,41.30
2019-04-23T17:09:26.451Z,41.20
2019-04-23T17:16:47.375Z,41.10
2019-04-23T17:19:33.328Z,41.10
2019-04-23T17:26:59.552Z,41.20
2019-04-23T17:29:21.442Z,41.20
2019-04-23T17:31:44.768Z,41.40
2019-04-23T17:34:30.881Z,41.60
2019-04-23T17:37:07.071Z,41.40
2019-04-23T17:39:25.391Z,41.60
2019-04-23T17:44:55.198Z,41.70
2019-04-23T17:47:20.441Z,41.70
2019-04-23T17:49:59.946Z,41.70
2019-04-23T17:52:21.884Z,41.80
2019-04-23T17:54:51.598Z,41.70
2019-04-23T17:57:15.273Z,41.70
2019-04-23T18:02:41.058Z,41.70
2019-04-23T18:07:25.578Z,41.80
2019-04-23T18:09:48.652Z,42.20
2019-04-23T18:12:25.428Z,42.20
2019-04-23T18:14:39.513Z,42.20
2019-04-23T18:17:17.931Z,42.20
2019-04-23T18:19:37.603Z,42.10
2019-04-23T18:22:22.171Z,42.70
2019-04-23T18:24:59.382Z,42.10
2019-04-23T18:27:27.638Z,42.00
2019-04-23T18:30:02.175Z,42.00
2019-04-23T18:35:28.298Z,41.90
2019-04-23T18:40:06.836Z,41.90
2019-04-23T18:42:45.103Z,41.90
2019-04-23T18:45:20.726Z,41.90
2019-04-23T18:47:51.496Z,41.80
2019-04-23T18:50:19.544Z,42.40
2019-04-23T18:52:48.460Z,41.70
2019-04-23T18:55:18.869Z,41.70
2019-04-23T18:57:41.812Z,41.70
2019-04-23T19:00:07.521Z,41.60
2019-04-23T19:02:44.552Z,41.70
2019-04-23T19:07:53.565Z,41.60
2019-04-23T19:10:32.077Z,41.60
2019-04-23T19:13:11.017Z,41.80
2019-04-23T19:15:36.401Z,41.70
2019-04-23T19:23:08.305Z,41.70
2019-04-23T19:25:28.149Z,41.70
2019-04-23T19:28:09.198Z,41.80
2019-04-23T19:30:41.712Z,41.90
2019-04-23T19:33:14.311Z,41.70
2019-04-23T19:35:59.048Z,41.70
2019-04-23T19:38:28.761Z,41.90
2019-04-23T19:40:49.360Z,41.90
2019-04-23T19:43:15.064Z,41.90
2019-04-23T19:45:38.792Z,41.80
2019-04-23T19:48:12.492Z,41.70
2019-04-23T19:50:41.367Z,41.70
2019-04-23T19:55:55.404Z,41.70
2019-04-23T19:58:07.882Z,41.60
2019-04-23T20:03:17.124Z,41.40
2019-04-23T20:05:34.120Z,41.30
2019-04-23T20:08:12.832Z,41.30
2019-04-23T20:10:44.583Z,41.30
2019-04-23T20:13:04.925Z,41.30
2019-04-23T20:15:53.583Z,41.20
2019-04-23T20:18:01.168Z,41.10
2019-04-23T20:20:42.153Z,41.00
2019-04-23T20:23:36.029Z,41.10
2019-04-23T20:28:31.111Z,41.00
2019-04-23T20:31:04.115Z,41.00
2019-04-23T20:43:18.968Z,40.90
2019-04-23T20:45:56.528Z,40.90
2019-04-23T20:48:12.643Z,40.80
2019-04-23T20:50:48.947Z,40.80
2019-04-23T20:53:15.557Z,40.80
2019-04-23T20:55:58.372Z,40.90
2019-04-23T20:58:36.585Z,40.90
2019-04-23T21:01:07.181Z,40.90
2019-04-23T21:03:52.414Z,41.10
2019-04-23T21:06:05.046Z,41.10
2019-04-23T21:10:55.426Z,40.90
2019-04-23T21:16:13.135Z,40.90
2019-04-23T21:18:31.526Z,40.80
2019-04-23T21:23:30.308Z,40.70
2019-04-23T21:28:35.858Z,40.60
2019-04-23T21:33:29.653Z,40.50
2019-04-23T21:41:46.202Z,40.50
2019-04-23T21:46:38.258Z,40.40
2019-04-23T21:49:16.262Z,40.40
2019-04-23T21:53:55.417Z,40.40
2019-04-23T21:56:39.760Z,40.30
2019-04-23T21:59:03.970Z,40.20
2019-04-23T22:09:14.666Z,40.20
2019-04-23T22:21:34.617Z,40.20
2019-04-23T22:26:33.539Z,41.20
2019-04-23T22:31:29.483Z,40.40
2019-04-23T22:34:13.831Z,40.40
2019-04-23T22:38:52.664Z,40.20
2019-04-23T22:41:17.809Z,40.20
2019-04-23T22:43:53.126Z,40.20
2019-04-23T22:49:07.952Z,40.10
2019-04-23T22:54:02.783Z,40.10
2019-04-23T22:56:25.893Z,40.10
2019-04-23T22:59:07.974Z,40.10
2019-04-23T23:01:32.432Z,40.10
2019-04-23T23:04:04.604Z,40.10
2019-04-23T23:06:44.724Z,40.10
2019-04-23T23:11:34.923Z,40.10
2019-04-23T23:16:28.746Z,40.10
2019-04-23T23:19:03.953Z,40.10
2019-04-23T23:21:35.380Z,40.10
2019-04-23T23:23:59.649Z,40.10
2019-04-23T23:26:35.539Z,40.10
2019-04-23T23:28:56.200Z,40.00
2019-04-23T23:31:46.640Z,40.10
2019-04-23T23:34:04.108Z,40.10
2019-04-23T23:39:02.863Z,40.10
2019-04-23T23:41:43.650Z,40.10
2019-04-23T23:44:08.161Z,40.10
2019-04-23T23:48:56.635Z,40.50
2019-04-23T23:51:23.253Z,40.80
2019-04-23T23:53:57.350Z,41.00
